createdAt,value
2016-12-18T00:06:55.309Z,1030.1
2016-12-18T00:17:08.484Z,1030.1
2016-12-18T00:27:21.652Z,1029.9
2016-12-18T00:37:36.309Z,1029.8
2016-12-18T00:47:50.609Z,1029.7
2016-12-18T00:58:05.033Z,1029.6
2016-12-18T01:08:19.355Z,1029.5
2016-12-18T01:18:33.886Z,1029.5
2016-12-18T01:28:48.063Z,1029.5
2016-12-18T01:39:01.609Z,1029.2
2016-12-18T01:49:15.442Z,1029.1
2016-12-18T01:59:29.855Z,1029
2016-12-18T02:09:44.049Z,1029
2016-12-18T02:19:57.394Z,1029
2016-12-18T02:30:10.833Z,1029
2016-12-18T02:40:25.320Z,1029.2
2016-12-18T02:50:39.164Z,1029.2
2016-12-18T03:00:53.560Z,1029.3
2016-12-18T03:11:07.471Z,1029.3
2016-12-18T03:21:21.787Z,1029.3
2016-12-18T03:31:35.133Z,1029.4
2016-12-18T03:41:48.425Z,1029.4
2016-12-18T03:52:02.133Z,1029.2
2016-12-18T04:02:17.071Z,1029.2
2016-12-18T04:12:30.560Z,1029
2016-12-18T04:22:45.557Z,1028.7
2016-12-18T04:32:59.235Z,1028.6
2016-12-18T04:43:13.707Z,1028.6
2016-12-18T04:53:28.230Z,1028.6
2016-12-18T05:03:42.932Z,1028.7
2016-12-18T05:13:57.358Z,1028.6
2016-12-18T05:24:11.523Z,1028.4
2016-12-18T05:34:26.037Z,1028.5
2016-12-18T05:44:40.588Z,1028.3
2016-12-18T05:54:54.704Z,1028.4
2016-12-18T06:05:08.597Z,1028.5
2016-12-18T06:15:22.069Z,1028.5
2016-12-18T06:25:35.886Z,1028.4
2016-12-18T06:35:50.742Z,1028.6
2016-12-18T06:46:03.877Z,1028.6
2016-12-18T06:56:18.055Z,1028.6
2016-12-18T07:06:32.103Z,1028.5
2016-12-18T07:16:47.079Z,1028.6
2016-12-18T07:27:00.275Z,1028.4
2016-12-18T07:37:13.812Z,1028.5
2016-12-18T07:47:27.117Z,1028.5
2016-12-18T07:57:41.838Z,1028.3
2016-12-18T08:07:55.529Z,1028.3
2016-12-18T08:18:10.466Z,1028.3
2016-12-18T08:28:24.555Z,1028.2
2016-12-18T08:38:39.383Z,1028.3
2016-12-18T08:48:54.340Z,1028.3
2016-12-18T08:59:08.572Z,1028.3
2016-12-18T09:09:25.158Z,1028.3
2016-12-18T09:19:36.548Z,1028.2
2016-12-18T09:29:50.678Z,1028.3
2016-12-18T09:40:04.025Z,1028.3
2016-12-18T09:50:17.866Z,1028.2
2016-12-18T10:00:30.949Z,1028.3
2016-12-18T10:10:45.428Z,1028.3
2016-12-18T10:20:59.660Z,1028.3
2016-12-18T10:31:14.763Z,1028
2016-12-18T10:41:29.472Z,1027.8
2016-12-18T11:01:56.481Z,1027.7
2016-12-18T11:12:10.320Z,1027.7
2016-12-18T11:22:23.539Z,1027.7
2016-12-18T11:32:37.708Z,1027.5
2016-12-18T11:42:51.935Z,1027.3
2016-12-18T11:53:06.245Z,1027.3
2016-12-18T12:03:20.730Z,1027.3
2016-12-18T12:13:34.166Z,1027.2
2016-12-18T12:23:48.944Z,1027.1
2016-12-18T12:34:02.715Z,1027.1
2016-12-18T12:44:16.046Z,1027.1
2016-12-18T12:54:30.110Z,1027
2016-12-18T13:04:43.702Z,1026.9
2016-12-18T13:14:57.864Z,1026.9
2016-12-18T13:25:12.214Z,1026.7
2016-12-18T13:35:26.989Z,1026.5
2016-12-18T13:45:40.247Z,1026.5
2016-12-18T13:55:53.925Z,1026.4
2016-12-18T14:06:07.452Z,1026.3
2016-12-18T14:16:21.645Z,1026.2
2016-12-18T14:26:35.772Z,1026.3
2016-12-18T14:36:50.392Z,1026.2
2016-12-18T14:47:04.949Z,1026
2016-12-18T14:57:19.071Z,1026
2016-12-18T15:07:33.106Z,1026
2016-12-18T15:17:46.883Z,1026
2016-12-18T15:28:00.530Z,1026
2016-12-18T15:38:14.822Z,1026
2016-12-18T15:48:28.811Z,1025.9
2016-12-18T15:58:42.422Z,1025.9
2016-12-18T16:08:55.601Z,1025.9
2016-12-18T16:19:09.214Z,1025.8
2016-12-18T16:29:23.058Z,1025.8
2016-12-18T16:39:37.491Z,1025.7
2016-12-18T16:49:52.279Z,1025.6
2016-12-18T17:00:05.529Z,1025.7
2016-12-18T17:10:20.330Z,1025.6
2016-12-18T17:20:33.616Z,1025.6
2016-12-18T17:30:46.964Z,1025.5
2016-12-18T17:41:01.080Z,1025.5
2016-12-18T17:51:14.761Z,1025.5
2016-12-18T18:01:28.946Z,1025.5
2016-12-18T18:11:42.360Z,1025.4
2016-12-18T18:21:56.284Z,1025.4
2016-12-18T18:32:09.794Z,1025.4
2016-12-18T18:42:34.290Z,1025.5
2016-12-18T18:52:37.836Z,1025.5
2016-12-18T19:02:51.297Z,1025.5
2016-12-18T19:13:05.037Z,1025.5
2016-12-18T19:23:19.593Z,1025.5
2016-12-18T19:33:33.795Z,1025.4
2016-12-18T19:43:47.175Z,1025.4
2016-12-18T19:54:00.848Z,1025.3
2016-12-18T20:04:14.781Z,1025.4
2016-12-18T20:14:29.484Z,1025.3
2016-12-18T20:24:44.058Z,1025.3
2016-12-18T20:34:58.689Z,1025.4
2016-12-18T20:45:11.809Z,1025.3
2016-12-18T20:55:25.683Z,1025.3
2016-12-18T21:05:38.800Z,1025.2
2016-12-18T21:15:52.133Z,1025.1
2016-12-18T21:26:06.539Z,1025
2016-12-18T21:36:19.652Z,1025.1
2016-12-18T21:46:33.273Z,1025
2016-12-18T21:56:46.432Z,1025
2016-12-18T22:07:00.132Z,1024.8
2016-12-18T22:17:14.912Z,1024.9
2016-12-18T22:27:28.273Z,1024.8
2016-12-18T22:37:43.060Z,1024.8
2016-12-18T22:47:57.736Z,1024.7
2016-12-18T22:58:12.154Z,1024.7
2016-12-18T23:08:26.247Z,1024.6
2016-12-18T23:18:45.236Z,1024.5
2016-12-18T23:28:54.081Z,1024.5
2016-12-18T23:39:07.945Z,1024.6
2016-12-18T23:49:22.339Z,1024.5
2016-12-18T23:59:36.957Z,1024.4
